LFLU 301030Z AUTO 20008KT 150V250 CAVOK 23/09 Q1016

ElémentsDécodage
LFLU Station météo située sur l'aérodrome de VALENCE Chabeuil
301030Z émis le 30 du mois à 10h30 UTC
AUTO Bulletin édité par un automate
20008KT vent du 200°, 08 noeuds
150V250 vent de direction variable entre 150° et 250°
CAVOK Ceiling And Visibility OK
- Visibilité de 10 Km ou plus
- Pas de nuage au-dessous de 1500m ou au-dessous de l'altitude minimale du secteur la plus élevée (si>1500m) et absence de CB
- pas de temps présent significatif
23/09 température 23°C, point de rosée 09°C
 soit une humidité relative de 41%
Q1016 la pression au niveau de la mer (QNH) est de 1016 hPa